createdAt,value
2023-03-22T00:01:24.183Z,12.07
2023-03-22T00:04:09.853Z,12.04
2023-03-22T00:06:55.496Z,12.01
2023-03-22T00:09:41.223Z,11.99
2023-03-22T00:12:27.083Z,11.96
2023-03-22T00:15:12.911Z,11.91
2023-03-22T00:17:59.108Z,11.90
2023-03-22T00:20:52.751Z,11.83
2023-03-22T00:24:15.727Z,11.80
2023-03-22T00:27:01.804Z,11.79
2023-03-22T00:29:47.328Z,11.83
2023-03-22T00:32:38.701Z,11.80
2023-03-22T00:35:24.559Z,11.83
2023-03-22T00:38:14.279Z,11.80
2023-03-22T00:41:23.206Z,11.80
2023-03-22T00:44:08.980Z,11.83
2023-03-22T00:46:54.680Z,11.84
2023-03-22T00:49:40.463Z,11.84
2023-03-22T00:52:26.616Z,11.84
2023-03-22T00:55:12.575Z,11.81
2023-03-22T00:57:58.432Z,11.80
2023-03-22T01:00:45.221Z,11.82
2023-03-22T01:03:31.238Z,11.81
2023-03-22T01:06:17.335Z,11.81
2023-03-22T01:09:05.082Z,11.79
2023-03-22T01:11:50.828Z,11.80
2023-03-22T01:14:36.784Z,11.76
2023-03-22T01:17:22.909Z,11.73
2023-03-22T01:20:09.719Z,11.66
2023-03-22T01:22:55.776Z,11.61
2023-03-22T01:25:41.726Z,11.56
2023-03-22T01:28:28.440Z,11.51
2023-03-22T01:31:14.054Z,11.49
2023-03-22T01:33:59.877Z,11.47
2023-03-22T01:36:46.643Z,11.47
2023-03-22T01:39:32.976Z,11.47
2023-03-22T01:42:24.022Z,11.47
2023-03-22T01:45:15.522Z,11.43
2023-03-22T01:48:22.227Z,11.39
2023-03-22T01:51:13.249Z,11.35
2023-03-22T01:54:47.348Z,11.30
2023-03-22T01:57:45.045Z,11.28
2023-03-22T02:00:37.251Z,11.26
2023-03-22T02:04:07.260Z,11.25
2023-03-22T02:06:54.358Z,11.23
2023-03-22T02:09:43.943Z,11.16
2023-03-22T02:12:36.571Z,11.14
2023-03-22T02:15:47.052Z,11.11
2023-03-22T02:19:42.335Z,11.07
2023-03-22T02:22:58.153Z,11.06
2023-03-22T02:26:02.576Z,11.01
2023-03-22T02:29:26.431Z,10.98
2023-03-22T02:32:39.073Z,10.87
2023-03-22T02:35:31.440Z,10.82
2023-03-22T02:38:20.315Z,10.79
2023-03-22T02:41:11.618Z,10.78
2023-03-22T02:44:13.373Z,10.75
2023-03-22T02:47:03.531Z,10.76
2023-03-22T02:50:08.712Z,10.69
2023-03-22T02:53:10.114Z,10.69
2023-03-22T02:56:01.405Z,10.66
2023-03-22T02:58:53.403Z,10.65
2023-03-22T03:01:51.434Z,10.65
2023-03-22T03:04:42.273Z,10.65
2023-03-22T03:07:29.131Z,10.64
2023-03-22T03:10:16.584Z,10.62
2023-03-22T03:13:02.374Z,10.58
2023-03-22T03:15:54.062Z,10.57
2023-03-22T03:18:49.629Z,10.58
2023-03-22T03:21:46.507Z,10.59
2023-03-22T03:24:40.496Z,10.58
2023-03-22T03:27:36.821Z,10.56
2023-03-22T03:30:30.945Z,10.56
2023-03-22T03:33:16.849Z,10.53
2023-03-22T03:36:06.900Z,10.53
2023-03-22T03:38:54.924Z,10.50
2023-03-22T03:41:46.921Z,10.40
2023-03-22T03:44:36.093Z,10.45
2023-03-22T03:47:24.578Z,10.43
2023-03-22T03:50:11.897Z,10.46
2023-03-22T03:52:57.669Z,10.49
2023-03-22T03:55:43.800Z,10.48
2023-03-22T03:58:33.187Z,10.48
2023-03-22T04:01:20.793Z,10.50
2023-03-22T04:04:27.762Z,10.52
2023-03-22T04:07:23.220Z,10.48
2023-03-22T04:10:09.044Z,10.50
2023-03-22T04:12:54.974Z,10.51
2023-03-22T04:15:41.118Z,10.53
2023-03-22T04:18:32.155Z,10.51
2023-03-22T04:21:21.874Z,10.51
2023-03-22T04:24:16.158Z,10.51
2023-03-22T04:27:05.026Z,10.53
2023-03-22T04:29:58.129Z,10.53
2023-03-22T04:33:07.276Z,10.50
2023-03-22T04:36:24.889Z,10.46
2023-03-22T04:39:42.668Z,10.43
2023-03-22T04:42:57.565Z,10.38
2023-03-22T04:46:10.143Z,10.38
2023-03-22T04:49:03.481Z,10.38
2023-03-22T04:51:54.617Z,10.34
2023-03-22T04:54:53.632Z,10.37
2023-03-22T04:57:39.400Z,10.34
2023-03-22T05:00:25.601Z,10.31
2023-03-22T05:03:13.411Z,10.29
2023-03-22T05:06:04.907Z,10.32
2023-03-22T05:09:01.073Z,10.27
2023-03-22T05:11:47.568Z,10.29
2023-03-22T05:14:42.797Z,10.29
2023-03-22T05:17:31.056Z,10.25
2023-03-22T05:20:18.961Z,10.23
2023-03-22T05:23:11.041Z,10.21
2023-03-22T05:25:58.618Z,10.23
2023-03-22T05:28:46.597Z,10.24
2023-03-22T05:31:40.410Z,10.25
2023-03-22T05:34:35.580Z,10.30
2023-03-22T05:37:31.070Z,10.33
2023-03-22T05:40:18.149Z,10.36
2023-03-22T05:43:05.331Z,10.36
2023-03-22T05:45:51.899Z,10.45
2023-03-22T05:49:06.824Z,10.42
2023-03-22T05:51:53.122Z,10.50
2023-03-22T05:54:42.075Z,10.54
2023-03-22T05:57:30.211Z,10.58
2023-03-22T06:00:18.253Z,10.63
2023-03-22T06:03:24.518Z,10.69
2023-03-22T06:06:18.688Z,10.71
2023-03-22T06:09:17.675Z,10.79
2023-03-22T06:12:08.034Z,10.81
2023-03-22T06:14:54.339Z,10.83
2023-03-22T06:18:04.978Z,10.86
2023-03-22T06:20:55.473Z,10.88
2023-03-22T06:23:44.093Z,10.93
2023-03-22T06:26:36.283Z,10.98
2023-03-22T06:29:22.387Z,11.02
2023-03-22T06:32:10.787Z,11.05
2023-03-22T06:34:56.728Z,11.10
2023-03-22T06:37:43.440Z,11.14
2023-03-22T06:40:29.222Z,11.19
2023-03-22T06:43:16.058Z,11.25
2023-03-22T06:46:05.566Z,11.31
2023-03-22T06:48:57.937Z,11.35
2023-03-22T06:51:44.130Z,11.44
2023-03-22T06:54:29.790Z,11.48
2023-03-22T06:57:15.875Z,11.58
2023-03-22T07:00:01.629Z,11.65
2023-03-22T07:02:47.206Z,11.71
2023-03-22T07:05:44.993Z,11.79
2023-03-22T07:08:32.082Z,11.82
2023-03-22T07:11:17.851Z,11.91
2023-03-22T07:14:08.746Z,11.92
2023-03-22T07:17:15.117Z,12.01
2023-03-22T07:20:01.863Z,12.08
2023-03-22T07:22:51.649Z,12.13
2023-03-22T07:25:39.968Z,12.20
2023-03-22T07:28:44.581Z,12.22
2023-03-22T07:31:35.748Z,12.29
2023-03-22T07:34:24.374Z,12.35
2023-03-22T07:37:30.938Z,12.40
2023-03-22T07:40:17.225Z,12.48
2023-03-22T07:43:03.428Z,12.50
2023-03-22T07:46:07.040Z,12.61
2023-03-22T07:49:15.968Z,12.69
2023-03-22T07:52:08.939Z,12.77
2023-03-22T07:54:54.877Z,12.85
2023-03-22T07:57:40.990Z,12.93
2023-03-22T08:00:27.333Z,12.98
2023-03-22T08:03:36.602Z,13.10
2023-03-22T08:06:42.799Z,13.19
2023-03-22T08:09:30.213Z,13.27
2023-03-22T08:12:16.199Z,13.31
2023-03-22T08:15:04.400Z,13.40
2023-03-22T08:17:52.582Z,13.50
2023-03-22T08:20:56.422Z,13.57
2023-03-22T08:23:43.933Z,13.64
2023-03-22T08:26:54.114Z,13.71
2023-03-22T08:29:49.031Z,13.87
2023-03-22T08:32:35.753Z,14.00
2023-03-22T08:35:21.889Z,14.10
2023-03-22T08:38:09.702Z,14.22
2023-03-22T08:41:03.681Z,14.33
2023-03-22T08:43:49.642Z,14.42
2023-03-22T08:46:35.909Z,14.51
2023-03-22T08:49:22.389Z,14.63
2023-03-22T08:52:15.550Z,14.68
2023-03-22T08:55:22.246Z,14.80
2023-03-22T08:58:26.465Z,14.88
2023-03-22T09:01:34.436Z,14.98
2023-03-22T09:04:22.370Z,15.15
2023-03-22T09:07:08.171Z,15.33
2023-03-22T09:09:54.839Z,15.52
2023-03-22T09:12:41.550Z,15.63
2023-03-22T09:15:27.431Z,15.75
2023-03-22T09:18:31.105Z,15.83
2023-03-22T09:21:22.064Z,15.91
2023-03-22T09:24:27.906Z,16.06
2023-03-22T09:27:17.108Z,16.27
2023-03-22T09:30:03.092Z,16.41
2023-03-22T09:32:49.322Z,16.51
2023-03-22T09:35:36.401Z,16.61
2023-03-22T09:38:27.565Z,16.65
2023-03-22T09:41:25.109Z,16.68
2023-03-22T09:44:22.350Z,16.76
2023-03-22T09:47:18.049Z,16.84
2023-03-22T09:50:16.491Z,16.93
2023-03-22T09:53:02.136Z,17.07
2023-03-22T09:56:07.710Z,17.26
2023-03-22T09:58:59.514Z,17.48
2023-03-22T10:01:51.261Z,17.68
2023-03-22T10:05:13.211Z,17.88
2023-03-22T10:08:07.722Z,18.04
2023-03-22T10:10:54.972Z,18.05
2023-03-22T10:13:47.554Z,18.01
2023-03-22T10:16:35.011Z,18.05
2023-03-22T10:19:25.720Z,18.12
2023-03-22T10:22:15.702Z,18.17
2023-03-22T10:25:02.378Z,18.25
2023-03-22T10:27:49.938Z,18.22
2023-03-22T10:30:38.463Z,18.17
2023-03-22T10:33:27.778Z,18.13
2023-03-22T10:36:13.959Z,18.10
2023-03-22T10:39:21.948Z,17.98
2023-03-22T10:42:14.576Z,17.97
2023-03-22T10:45:13.690Z,17.97
2023-03-22T10:48:04.167Z,18.00
2023-03-22T10:50:50.334Z,18.06
2023-03-22T10:53:39.889Z,18.11
2023-03-22T10:56:25.812Z,18.17
2023-03-22T10:59:47.693Z,18.21
2023-03-22T11:02:33.480Z,18.22
2023-03-22T11:05:23.081Z,18.26
2023-03-22T11:08:14.513Z,18.25
2023-03-22T11:11:00.443Z,18.28
2023-03-22T11:13:54.906Z,18.31
2023-03-22T11:17:01.897Z,18.33
2023-03-22T11:19:56.582Z,18.38
2023-03-22T11:22:48.156Z,18.41
2023-03-22T11:25:38.573Z,18.49
2023-03-22T11:28:28.980Z,18.53
2023-03-22T11:31:16.705Z,18.55
2023-03-22T11:34:02.645Z,18.57
2023-03-22T11:36:54.772Z,18.62
2023-03-22T11:39:46.537Z,18.65
2023-03-22T11:42:34.473Z,18.70
2023-03-22T11:45:37.338Z,18.79
2023-03-22T11:48:25.722Z,18.97
2023-03-22T11:51:20.138Z,19.08
2023-03-22T11:54:05.968Z,19.13
2023-03-22T11:56:52.357Z,19.13
2023-03-22T11:59:40.690Z,19.07
2023-03-22T12:02:41.839Z,18.97
2023-03-22T12:05:32.904Z,18.86
2023-03-22T12:08:27.083Z,18.82
2023-03-22T12:11:27.573Z,18.88
2023-03-22T12:14:35.111Z,18.97
2023-03-22T12:17:25.971Z,19.07
2023-03-22T12:20:40.133Z,19.05
2023-03-22T12:23:30.041Z,19.03
2023-03-22T12:26:18.684Z,19.01
2023-03-22T12:29:08.232Z,19.17
2023-03-22T12:32:03.506Z,19.38
2023-03-22T12:34:52.613Z,19.44
2023-03-22T12:37:42.851Z,19.44
2023-03-22T12:40:32.664Z,19.41
2023-03-22T12:43:33.744Z,19.37
2023-03-22T12:46:28.590Z,19.33
2023-03-22T12:49:26.448Z,19.33
2023-03-22T12:52:22.634Z,19.41
2023-03-22T12:55:10.762Z,19.46
2023-03-22T12:57:58.333Z,19.49
2023-03-22T13:01:01.279Z,19.46
2023-03-22T13:03:53.577Z,19.39
2023-03-22T13:06:44.690Z,19.34
2023-03-22T13:09:48.155Z,19.21
2023-03-22T13:12:34.813Z,19.12
2023-03-22T13:15:41.949Z,19.11
2023-03-22T13:18:36.521Z,19.14
2023-03-22T13:21:23.134Z,19.20
2023-03-22T13:24:10.130Z,19.22
2023-03-22T13:26:59.302Z,19.31
2023-03-22T13:29:49.937Z,19.43
2023-03-22T13:32:37.729Z,19.58
2023-03-22T13:35:29.042Z,20.13
2023-03-22T13:38:22.435Z,20.81
2023-03-22T13:41:14.121Z,21.55
2023-03-22T13:44:02.373Z,21.89
2023-03-22T13:46:52.399Z,22.09
2023-03-22T13:49:48.716Z,22.18
2023-03-22T13:52:38.243Z,22.32
2023-03-22T13:55:54.443Z,22.97
2023-03-22T13:58:41.322Z,23.53
2023-03-22T14:01:35.304Z,23.77
2023-03-22T14:04:37.497Z,24.02
2023-03-22T14:07:25.940Z,24.25
2023-03-22T14:10:26.636Z,24.39
2023-03-22T14:13:17.884Z,24.17
2023-03-22T14:16:15.657Z,23.82
2023-03-22T14:19:03.700Z,23.44
